createdAt,value
2019-05-11T00:00:59.223Z,84.38
2019-05-11T00:01:59.265Z,84.30
2019-05-11T00:02:59.302Z,84.36
2019-05-11T00:03:59.258Z,84.23
2019-05-11T00:04:59.281Z,84.50
2019-05-11T00:05:59.332Z,84.33
2019-05-11T00:06:59.283Z,84.26
2019-05-11T00:07:59.329Z,84.31
2019-05-11T00:08:59.330Z,84.28
2019-05-11T00:09:59.309Z,84.25
2019-05-11T00:10:59.350Z,84.33
2019-05-11T00:11:59.392Z,84.32
2019-05-11T00:12:59.373Z,84.16
2019-05-11T00:13:59.394Z,84.25
2019-05-11T00:14:59.433Z,84.19
2019-05-11T00:15:59.394Z,84.30
2019-05-11T00:16:59.407Z,84.16
2019-05-11T00:17:59.517Z,84.14
2019-05-11T00:18:59.444Z,84.24
2019-05-11T00:19:59.463Z,84.07
2019-05-11T00:20:59.494Z,84.13
2019-05-11T00:21:59.471Z,84.26
2019-05-11T00:22:59.496Z,83.98
2019-05-11T00:23:59.536Z,84.08
2019-05-11T00:24:59.495Z,83.84
2019-05-11T00:25:59.516Z,84.01
2019-05-11T00:26:59.529Z,84.07
2019-05-11T00:27:59.523Z,83.94
2019-05-11T00:28:59.599Z,83.96
2019-05-11T00:29:59.547Z,84.00
2019-05-11T00:30:59.601Z,84.25
2019-05-11T00:31:59.595Z,83.93
2019-05-11T00:32:59.630Z,83.99
2019-05-11T00:33:59.615Z,83.83
2019-05-11T00:34:59.661Z,84.04
2019-05-11T00:35:59.670Z,84.03
2019-05-11T00:36:59.649Z,84.27
2019-05-11T00:37:59.672Z,84.13
2019-05-11T00:38:59.697Z,84.11
2019-05-11T00:40:13.271Z,83.93
2019-05-11T00:40:59.715Z,84.06
2019-05-11T00:41:59.699Z,84.17
2019-05-11T00:42:59.684Z,83.93
2019-05-11T00:43:59.684Z,84.17
2019-05-11T00:44:59.680Z,84.19
2019-05-11T00:45:59.700Z,84.45
2019-05-11T00:46:59.729Z,84.28
2019-05-11T00:47:59.723Z,84.36
2019-05-11T00:48:59.689Z,84.21
2019-05-11T00:49:59.701Z,84.37
2019-05-11T00:50:59.692Z,84.46
2019-05-11T00:51:59.702Z,84.29
2019-05-11T00:52:59.711Z,84.62
2019-05-11T00:53:59.716Z,84.51
2019-05-11T00:54:59.673Z,84.32
2019-05-11T00:55:59.698Z,84.68
2019-05-11T00:56:59.702Z,84.58
2019-05-11T00:57:59.712Z,84.67
2019-05-11T00:58:59.704Z,84.44
2019-05-11T00:59:59.727Z,84.53
2019-05-11T01:00:59.681Z,84.48
2019-05-11T01:01:59.690Z,84.71
2019-05-11T01:02:59.701Z,84.70
2019-05-11T01:03:59.684Z,84.35
2019-05-11T01:04:59.703Z,84.64
2019-05-11T01:05:59.693Z,84.54
2019-05-11T01:06:59.691Z,84.81
2019-05-11T01:07:59.738Z,84.64
2019-05-11T01:08:59.691Z,84.68
2019-05-11T01:09:59.708Z,84.71
2019-05-11T01:10:59.725Z,84.52
2019-05-11T01:11:59.735Z,84.65
2019-05-11T01:12:59.729Z,84.84
2019-05-11T01:13:59.712Z,84.72
2019-05-11T01:14:59.681Z,84.58
2019-05-11T01:15:59.711Z,84.45
2019-05-11T01:16:59.709Z,84.85
2019-05-11T01:17:59.750Z,84.74
2019-05-11T01:18:59.734Z,84.66
2019-05-11T01:19:59.735Z,84.91
2019-05-11T01:20:59.725Z,84.84
2019-05-11T01:21:59.693Z,84.79
2019-05-11T01:22:59.722Z,84.77
2019-05-11T01:23:59.755Z,84.95
2019-05-11T01:24:59.700Z,85.10
2019-05-11T01:25:59.749Z,85.04
2019-05-11T01:26:59.740Z,84.99
2019-05-11T01:27:59.720Z,85.23
2019-05-11T01:28:59.711Z,85.18
2019-05-11T01:29:59.740Z,84.97
2019-05-11T01:30:59.706Z,84.96
2019-05-11T01:31:59.720Z,85.07
2019-05-11T01:32:59.745Z,85.12
2019-05-11T01:33:59.704Z,85.02
2019-05-11T01:34:59.745Z,85.04
2019-05-11T01:35:59.768Z,84.99
2019-05-11T01:36:59.726Z,85.12
2019-05-11T01:37:59.708Z,85.25
2019-05-11T01:38:59.761Z,85.02
2019-05-11T01:39:59.722Z,84.88
2019-05-11T01:40:59.747Z,85.00
2019-05-11T01:41:59.772Z,85.04
2019-05-11T01:42:59.748Z,85.15
2019-05-11T01:43:59.732Z,85.12
2019-05-11T01:44:59.789Z,85.09
2019-05-11T01:45:59.719Z,85.03
2019-05-11T01:46:59.742Z,85.18
2019-05-11T01:47:59.712Z,85.24
2019-05-11T01:48:59.714Z,85.17
2019-05-11T01:49:59.739Z,85.27
2019-05-11T01:50:59.781Z,85.21
2019-05-11T01:51:59.763Z,85.32
2019-05-11T01:52:59.713Z,85.10
2019-05-11T01:53:59.738Z,85.11
2019-05-11T01:54:59.725Z,85.19
2019-05-11T01:55:59.743Z,85.06
2019-05-11T01:56:59.771Z,85.15
2019-05-11T01:57:59.747Z,84.97
2019-05-11T01:58:59.729Z,85.27
2019-05-11T01:59:59.769Z,85.10
2019-05-11T02:00:59.726Z,85.14
2019-05-11T02:01:59.770Z,85.09
2019-05-11T02:02:59.724Z,85.10
2019-05-11T02:03:59.740Z,84.90
2019-05-11T02:04:59.762Z,85.12
2019-05-11T02:05:59.762Z,85.07
2019-05-11T02:06:59.749Z,85.05
2019-05-11T02:07:59.815Z,85.02
2019-05-11T02:08:59.777Z,85.02
2019-05-11T02:09:59.750Z,85.16
2019-05-11T02:11:14.883Z,85.04
2019-05-11T02:11:59.738Z,84.97
2019-05-11T02:12:59.746Z,85.06
2019-05-11T02:13:59.758Z,85.02
2019-05-11T02:14:59.794Z,84.98
2019-05-11T02:15:59.740Z,85.05
2019-05-11T02:16:59.748Z,84.91
2019-05-11T02:17:59.814Z,84.86
2019-05-11T02:18:59.747Z,85.00
2019-05-11T02:19:59.760Z,85.11
2019-05-11T02:20:59.789Z,84.88
2019-05-11T02:21:59.735Z,84.88
2019-05-11T02:22:59.777Z,84.95
2019-05-11T02:23:59.805Z,84.74
2019-05-11T02:24:59.748Z,85.03
2019-05-11T02:25:59.773Z,84.88
2019-05-11T02:26:59.796Z,84.96
2019-05-11T02:27:59.739Z,84.93
2019-05-11T02:28:59.794Z,84.90
2019-05-11T02:29:59.782Z,84.85
2019-05-11T02:30:59.751Z,84.74
2019-05-11T02:31:59.776Z,84.77
2019-05-11T02:32:59.780Z,84.65
2019-05-11T02:33:59.760Z,84.74
2019-05-11T02:34:59.766Z,84.75
2019-05-11T02:35:59.751Z,84.68
2019-05-11T02:36:59.745Z,84.77
2019-05-11T02:37:59.775Z,84.69
2019-05-11T02:38:59.798Z,84.63
2019-05-11T02:39:59.760Z,84.54
2019-05-11T02:40:59.772Z,84.49
2019-05-11T02:41:59.800Z,84.52
2019-05-11T02:42:59.764Z,84.63
2019-05-11T02:43:59.776Z,84.60
2019-05-11T02:44:59.780Z,84.53
2019-05-11T02:45:59.755Z,84.45
2019-05-11T02:46:59.784Z,84.42
2019-05-11T02:47:59.783Z,84.42
2019-05-11T02:48:59.771Z,84.42
2019-05-11T02:49:59.784Z,84.50
2019-05-11T02:50:59.757Z,84.42
2019-05-11T02:51:59.777Z,84.46
2019-05-11T02:52:59.792Z,84.36
2019-05-11T02:53:59.830Z,84.26
2019-05-11T02:54:59.763Z,84.44
2019-05-11T02:55:59.913Z,84.34
2019-05-11T02:56:59.817Z,84.23
2019-05-11T02:57:59.790Z,84.21
2019-05-11T02:58:59.808Z,84.17
2019-05-11T02:59:59.819Z,84.09
2019-05-11T03:00:59.804Z,84.20
2019-05-11T03:01:59.791Z,84.20
2019-05-11T03:02:59.818Z,84.11
2019-05-11T03:03:59.781Z,84.18
2019-05-11T03:04:59.795Z,84.10
2019-05-11T03:05:59.814Z,84.11
2019-05-11T03:06:59.767Z,84.04
2019-05-11T03:07:59.789Z,83.99
2019-05-11T03:08:59.775Z,84.04
2019-05-11T03:09:59.785Z,83.99
2019-05-11T03:10:59.820Z,83.95
2019-05-11T03:11:59.825Z,84.05
2019-05-11T03:12:59.777Z,83.97
2019-05-11T03:13:59.815Z,84.00
2019-05-11T03:14:59.763Z,83.89
2019-05-11T03:15:59.792Z,83.95
2019-05-11T03:16:59.787Z,83.88
2019-05-11T03:17:59.761Z,84.01
2019-05-11T03:18:59.801Z,83.86
2019-05-11T03:19:59.793Z,83.85
2019-05-11T03:20:59.778Z,83.92
2019-05-11T03:21:59.805Z,83.90
2019-05-11T03:22:59.816Z,83.94
2019-05-11T03:23:59.821Z,83.90
2019-05-11T03:24:59.772Z,83.77
2019-05-11T03:25:59.810Z,83.80
2019-05-11T03:26:59.799Z,83.85
2019-05-11T03:27:59.808Z,83.81
2019-05-11T03:28:59.783Z,83.75
2019-05-11T03:30:01.163Z,83.79
2019-05-11T03:30:59.839Z,83.94
2019-05-11T03:31:59.838Z,83.79
2019-05-11T03:32:59.862Z,83.89
2019-05-11T03:33:59.812Z,83.72
2019-05-11T03:34:59.786Z,83.87
2019-05-11T03:35:59.840Z,83.57
2019-05-11T03:36:59.829Z,83.79
2019-05-11T03:37:59.811Z,83.78
2019-05-11T03:38:59.868Z,83.76
2019-05-11T03:39:59.787Z,83.72
2019-05-11T03:40:59.817Z,83.84
2019-05-11T03:42:13.837Z,83.77
2019-05-11T03:42:59.811Z,83.88
2019-05-11T03:43:59.831Z,83.91
2019-05-11T03:44:59.783Z,83.91
2019-05-11T03:45:59.817Z,83.88
2019-05-11T03:46:59.829Z,83.97
2019-05-11T03:47:59.782Z,83.89
2019-05-11T03:48:59.804Z,83.95
2019-05-11T03:49:59.843Z,83.98
2019-05-11T03:50:59.840Z,83.91
2019-05-11T03:51:59.808Z,83.89
2019-05-11T03:52:59.825Z,83.95
2019-05-11T03:53:59.848Z,83.93
2019-05-11T03:54:59.791Z,83.87
2019-05-11T03:55:59.854Z,83.98
2019-05-11T03:56:59.823Z,83.70
2019-05-11T03:57:59.809Z,83.83
2019-05-11T03:58:59.836Z,83.70
2019-05-11T03:59:59.791Z,83.89
2019-05-11T04:00:59.811Z,83.71
2019-05-11T04:01:59.862Z,83.74
2019-05-11T04:02:59.792Z,83.72
2019-05-11T04:03:59.808Z,83.68
2019-05-11T04:04:59.853Z,83.87
2019-05-11T04:05:59.806Z,83.52
2019-05-11T04:06:59.805Z,83.63
2019-05-11T04:07:59.825Z,83.77
2019-05-11T04:08:59.824Z,83.75
2019-05-11T04:09:59.826Z,83.73
2019-05-11T04:10:59.860Z,83.60
2019-05-11T04:11:59.797Z,83.54
2019-05-11T04:12:59.861Z,83.56
2019-05-11T04:13:59.885Z,83.53
2019-05-11T04:14:59.836Z,83.49
2019-05-11T04:15:59.869Z,83.50
2019-05-11T04:16:59.840Z,83.58
2019-05-11T04:17:59.817Z,83.53
2019-05-11T04:18:59.865Z,83.59
2019-05-11T04:19:59.875Z,83.74
2019-05-11T04:20:59.864Z,83.61
2019-05-11T04:21:59.893Z,83.65
2019-05-11T04:22:59.867Z,83.50
2019-05-11T04:23:59.806Z,83.67
2019-05-11T04:24:59.907Z,83.56
2019-05-11T04:25:59.871Z,83.42
2019-05-11T04:26:59.864Z,83.53
2019-05-11T04:27:59.877Z,83.57
2019-05-11T04:28:59.843Z,83.49
2019-05-11T04:29:59.864Z,83.52
2019-05-11T04:30:59.885Z,83.49
2019-05-11T04:31:59.874Z,83.31
2019-05-11T04:32:59.812Z,83.34
2019-05-11T04:33:59.894Z,83.36
2019-05-11T04:34:59.867Z,83.28
2019-05-11T04:35:59.885Z,83.54
2019-05-11T04:36:59.878Z,83.23
2019-05-11T04:37:59.900Z,83.25
2019-05-11T04:38:59.867Z,83.27
2019-05-11T04:39:59.866Z,83.17
2019-05-11T04:40:59.846Z,82.89
2019-05-11T04:41:59.885Z,82.78
2019-05-11T04:42:59.884Z,82.75
2019-05-11T04:43:59.885Z,82.53
2019-05-11T04:44:59.889Z,82.35
2019-05-11T04:45:59.888Z,82.46
2019-05-11T04:46:59.863Z,82.40
2019-05-11T04:47:59.866Z,82.09
2019-05-11T04:48:59.889Z,81.99
2019-05-11T04:49:59.904Z,82.09
2019-05-11T04:50:59.862Z,81.74
2019-05-11T04:51:59.888Z,81.86
2019-05-11T04:52:59.894Z,82.00
2019-05-11T04:53:59.872Z,82.14
2019-05-11T04:54:59.902Z,82.06
2019-05-11T04:55:59.890Z,81.98
2019-05-11T04:56:59.882Z,81.91
2019-05-11T04:57:59.870Z,81.71
2019-05-11T04:58:59.896Z,81.38
2019-05-11T04:59:59.848Z,81.12
2019-05-11T05:00:59.884Z,81.22
2019-05-11T05:01:59.901Z,80.72
2019-05-11T05:02:59.887Z,80.40
2019-05-11T05:04:13.252Z,80.67
2019-05-11T05:04:59.865Z,80.60
2019-05-11T05:06:20.890Z,80.29
2019-05-11T05:07:00.280Z,80.32
2019-05-11T05:08:09.086Z,80.26
2019-05-11T05:09:03.670Z,80.38
2019-05-11T05:09:59.893Z,80.28
2019-05-11T05:11:00.823Z,80.50
2019-05-11T05:11:59.833Z,80.12
2019-05-11T05:13:10.145Z,79.74
2019-05-11T05:14:02.106Z,80.00
2019-05-11T05:14:59.835Z,79.18
2019-05-11T05:15:59.903Z,78.54
2019-05-11T05:16:59.891Z,77.82
2019-05-11T05:17:59.844Z,76.43
2019-05-11T05:18:59.907Z,75.53
2019-05-11T05:19:59.890Z,74.79
2019-05-11T05:20:59.843Z,73.37
2019-05-11T05:21:59.904Z,73.64
2019-05-11T05:22:59.897Z,73.17
2019-05-11T05:23:59.862Z,72.62
2019-05-11T05:24:59.926Z,71.72
2019-05-11T05:25:59.906Z,68.63
2019-05-11T05:26:59.886Z,66.49
2019-05-11T05:27:59.916Z,64.64
2019-05-11T05:28:59.913Z,64.63
2019-05-11T05:29:59.922Z,65.15
2019-05-11T05:30:59.917Z,64.97
2019-05-11T05:31:59.928Z,66.12
2019-05-11T05:32:59.851Z,67.35
2019-05-11T05:34:01.483Z,68.59
2019-05-11T05:34:59.896Z,69.42
2019-05-11T05:35:59.901Z,69.86
2019-05-11T05:36:59.938Z,71.10
2019-05-11T05:37:59.945Z,70.98
2019-05-11T05:38:59.866Z,71.07
2019-05-11T05:39:59.937Z,72.55
2019-05-11T05:40:59.918Z,72.02
2019-05-11T05:41:59.882Z,72.48
2019-05-11T05:42:59.940Z,72.53
2019-05-11T05:43:59.901Z,73.11
2019-05-11T05:44:59.914Z,73.27
2019-05-11T05:45:59.931Z,73.45
2019-05-11T05:46:59.892Z,73.21
2019-05-11T05:47:59.910Z,73.41
2019-05-11T05:48:59.951Z,73.24
2019-05-11T05:49:59.912Z,73.60
2019-05-11T05:50:59.916Z,73.15
2019-05-11T05:51:59.940Z,72.56
2019-05-11T05:52:59.923Z,72.86
2019-05-11T05:53:59.914Z,72.47
2019-05-11T05:54:59.960Z,72.48
2019-05-11T05:55:59.916Z,73.03
2019-05-11T05:56:59.889Z,72.07
2019-05-11T05:57:59.930Z,71.87
2019-05-11T05:58:59.919Z,71.90
2019-05-11T05:59:59.948Z,72.33
2019-05-11T06:00:59.950Z,71.76
2019-05-11T06:01:59.912Z,71.45
2019-05-11T06:02:59.875Z,70.81
2019-05-11T06:03:59.931Z,70.43
2019-05-11T06:04:59.943Z,69.83
2019-05-11T06:05:59.951Z,69.77
2019-05-11T06:06:59.944Z,70.29
2019-05-11T06:07:59.933Z,71.43
2019-05-11T06:08:59.933Z,70.95
2019-05-11T06:09:59.902Z,71.14
2019-05-11T06:10:59.962Z,71.11
2019-05-11T06:11:59.948Z,70.81
2019-05-11T06:12:59.929Z,71.63
2019-05-11T06:13:59.939Z,71.24
2019-05-11T06:14:59.890Z,70.66
2019-05-11T06:15:59.958Z,70.93
2019-05-11T06:16:59.932Z,71.87
2019-05-11T06:18:00.714Z,71.25
2019-05-11T06:18:59.930Z,70.45
2019-05-11T06:19:59.935Z,69.84
2019-05-11T06:20:59.934Z,69.69
2019-05-11T06:21:59.973Z,69.22
2019-05-11T06:22:59.955Z,69.31
2019-05-11T06:24:06.084Z,69.19
2019-05-11T06:24:59.919Z,68.67
2019-05-11T06:25:59.966Z,67.94
2019-05-11T06:26:59.970Z,68.04
2019-05-11T06:27:59.957Z,68.81
2019-05-11T06:28:59.947Z,67.72
2019-05-11T06:29:59.938Z,67.14
2019-05-11T06:30:59.967Z,66.47
2019-05-11T06:31:59.964Z,66.42
2019-05-11T06:32:59.973Z,66.94
2019-05-11T06:33:59.966Z,67.37
2019-05-11T06:34:59.959Z,68.88
2019-05-11T06:35:59.978Z,68.16
2019-05-11T06:36:59.957Z,68.63
2019-05-11T06:37:59.973Z,68.50
2019-05-11T06:38:59.974Z,66.53
2019-05-11T06:39:59.986Z,66.16
2019-05-11T06:40:59.940Z,64.70
2019-05-11T06:41:59.950Z,63.66
2019-05-11T06:42:59.988Z,64.46
2019-05-11T06:44:02.013Z,63.82
2019-05-11T06:44:59.969Z,63.81
2019-05-11T06:46:00.067Z,62.99
2019-05-11T06:46:59.981Z,62.92
2019-05-11T06:47:59.959Z,62.76
2019-05-11T06:48:59.975Z,61.67
2019-05-11T06:49:59.971Z,61.29
2019-05-11T06:50:59.928Z,61.85
2019-05-11T06:51:59.989Z,59.47
2019-05-11T06:52:59.973Z,62.65
2019-05-11T06:53:59.942Z,60.66
2019-05-11T06:55:00.014Z,60.03
2019-05-11T06:55:59.978Z,59.83
2019-05-11T06:56:59.915Z,58.84
2019-05-11T06:57:59.947Z,60.79
2019-05-11T06:58:59.976Z,59.80
2019-05-11T06:59:59.961Z,60.91
2019-05-11T07:01:00.013Z,56.60
2019-05-11T07:01:59.965Z,55.38
2019-05-11T07:02:59.928Z,55.19
2019-05-11T07:04:00.012Z,55.17
2019-05-11T07:04:59.982Z,56.11
2019-05-11T07:05:59.940Z,55.92
2019-05-11T07:07:00.003Z,56.24
2019-05-11T07:07:59.971Z,55.99
2019-05-11T07:08:59.981Z,55.49
2019-05-11T07:09:59.988Z,55.85
2019-05-11T07:10:59.987Z,58.03
2019-05-11T07:12:00.041Z,58.41
2019-05-11T07:13:00.017Z,56.75
2019-05-11T07:13:59.986Z,55.30
2019-05-11T07:14:59.954Z,55.64
2019-05-11T07:16:00.031Z,54.25
2019-05-11T07:17:00.018Z,53.65
2019-05-11T07:18:00.038Z,53.90
2019-05-11T07:19:00.056Z,55.60
2019-05-11T07:20:00.073Z,51.59
2019-05-11T07:21:00.049Z,52.07
2019-05-11T07:22:00.093Z,53.35
2019-05-11T07:23:00.112Z,53.77
2019-05-11T07:24:00.076Z,52.29
2019-05-11T07:25:00.143Z,50.08
2019-05-11T07:26:00.429Z,51.29
2019-05-11T07:27:00.148Z,49.82
2019-05-11T07:28:00.174Z,49.44
2019-05-11T07:29:00.185Z,48.00
2019-05-11T07:30:00.205Z,44.52
2019-05-11T07:31:00.209Z,44.71
2019-05-11T07:32:06.271Z,48.19
2019-05-11T07:33:00.992Z,47.51
2019-05-11T07:34:00.220Z,47.54
2019-05-11T07:35:00.206Z,42.25
2019-05-11T07:36:00.212Z,41.88
2019-05-11T07:37:00.212Z,43.53
2019-05-11T07:38:00.202Z,42.81
2019-05-11T07:39:00.195Z,47.52
2019-05-11T07:40:00.236Z,45.25
2019-05-11T07:41:00.222Z,40.15
2019-05-11T07:42:00.187Z,41.32
2019-05-11T07:43:00.217Z,42.31
2019-05-11T07:44:00.217Z,38.15
2019-05-11T07:45:00.198Z,39.99
2019-05-11T07:46:00.206Z,40.31
2019-05-11T07:47:00.224Z,42.61
2019-05-11T07:48:00.187Z,39.73
2019-05-11T07:49:00.241Z,39.19
2019-05-11T07:50:00.205Z,40.22
2019-05-11T07:51:00.214Z,38.71
2019-05-11T07:52:00.234Z,40.32
2019-05-11T07:53:00.239Z,40.02
2019-05-11T07:54:00.235Z,39.96
2019-05-11T07:55:00.236Z,39.09
2019-05-11T07:56:00.229Z,39.93
2019-05-11T07:57:00.220Z,40.68
2019-05-11T07:58:00.239Z,38.45
2019-05-11T07:59:00.254Z,40.35
2019-05-11T08:00:00.232Z,40.49
2019-05-11T08:01:00.235Z,39.78
2019-05-11T08:02:00.205Z,41.63
2019-05-11T08:03:00.228Z,42.26
2019-05-11T08:04:00.252Z,38.82
2019-05-11T08:05:00.239Z,40.78
2019-05-11T08:06:02.748Z,39.19
2019-05-11T08:07:00.241Z,41.14
2019-05-11T08:08:00.234Z,40.22
2019-05-11T08:09:00.169Z,40.19
2019-05-11T08:10:00.254Z,41.36
2019-05-11T08:11:00.255Z,38.74
2019-05-11T08:12:00.256Z,38.37
2019-05-11T08:13:00.247Z,40.06
2019-05-11T08:14:00.246Z,39.60
2019-05-11T08:15:08.155Z,39.33
2019-05-11T08:16:00.248Z,38.47
2019-05-11T08:17:00.295Z,36.86
2019-05-11T08:18:00.215Z,37.89
2019-05-11T08:19:00.262Z,39.44
2019-05-11T08:20:00.227Z,39.47
2019-05-11T08:21:00.236Z,41.14
2019-05-11T08:22:00.257Z,40.87
2019-05-11T08:23:00.261Z,39.52
2019-05-11T08:24:00.229Z,40.34
2019-05-11T08:25:00.265Z,39.14
2019-05-11T08:26:00.229Z,41.49
2019-05-11T08:27:00.247Z,40.54
2019-05-11T08:28:00.274Z,40.62
2019-05-11T08:29:00.266Z,39.84
2019-05-11T08:30:00.263Z,40.47
2019-05-11T08:31:00.272Z,42.02
2019-05-11T08:32:00.247Z,40.12
2019-05-11T08:33:00.225Z,41.63
2019-05-11T08:34:00.263Z,40.47
2019-05-11T08:35:00.288Z,41.51
2019-05-11T08:36:00.273Z,42.08
2019-05-11T08:37:00.277Z,40.32
2019-05-11T08:38:00.256Z,41.04
2019-05-11T08:39:00.253Z,40.47
2019-05-11T08:40:00.303Z,40.65
2019-05-11T08:41:00.269Z,41.02
2019-05-11T08:42:03.201Z,40.46
2019-05-11T08:43:00.291Z,41.59
2019-05-11T08:44:00.267Z,40.76
2019-05-11T08:45:16.226Z,40.45
2019-05-11T08:46:00.290Z,40.38
2019-05-11T08:47:00.289Z,37.58
2019-05-11T08:48:00.268Z,37.99
2019-05-11T08:49:00.299Z,37.27
2019-05-11T08:50:00.247Z,39.10
2019-05-11T08:51:00.252Z,38.70
2019-05-11T08:52:00.285Z,40.03
2019-05-11T08:53:00.292Z,39.42
2019-05-11T08:54:00.262Z,39.21
2019-05-11T08:55:00.272Z,38.63
2019-05-11T08:56:00.279Z,40.54
2019-05-11T08:57:00.219Z,39.41
2019-05-11T08:58:00.314Z,35.99
2019-05-11T08:59:00.287Z,39.35
2019-05-11T09:00:00.229Z,40.79
2019-05-11T09:01:00.302Z,39.68
2019-05-11T09:02:00.279Z,39.63
2019-05-11T09:03:00.233Z,37.82
2019-05-11T09:04:00.289Z,38.01
2019-05-11T09:05:00.276Z,38.11
2019-05-11T09:06:00.280Z,37.71
2019-05-11T09:07:00.326Z,37.48
2019-05-11T09:08:00.281Z,37.62
2019-05-11T09:09:00.237Z,38.65
2019-05-11T09:10:00.291Z,39.79
2019-05-11T09:11:00.303Z,40.10
2019-05-11T09:12:00.260Z,39.83
2019-05-11T09:13:00.325Z,39.71
2019-05-11T09:14:00.308Z,38.13
2019-05-11T09:15:00.301Z,40.55
2019-05-11T09:16:00.322Z,37.16
2019-05-11T09:17:00.291Z,39.36
2019-05-11T09:18:00.255Z,36.76
2019-05-11T09:19:00.300Z,36.69
2019-05-11T09:20:00.293Z,37.77
2019-05-11T09:21:00.260Z,35.52
2019-05-11T09:22:03.130Z,33.95
2019-05-11T09:23:00.310Z,33.96
2019-05-11T09:24:00.259Z,37.25
2019-05-11T09:25:00.323Z,37.80
2019-05-11T09:26:00.316Z,34.92
2019-05-11T09:27:00.246Z,37.17
2019-05-11T09:28:00.331Z,35.34
2019-05-11T09:29:00.292Z,36.87
2019-05-11T09:30:00.303Z,35.64
2019-05-11T09:31:00.356Z,37.69
2019-05-11T09:32:00.321Z,37.28
2019-05-11T09:33:00.312Z,36.21
2019-05-11T09:34:00.324Z,32.97
2019-05-11T09:35:00.304Z,34.87
2019-05-11T09:36:00.277Z,35.97
2019-05-11T09:37:00.335Z,31.88
2019-05-11T09:38:00.313Z,33.72
2019-05-11T09:39:00.309Z,34.50
2019-05-11T09:40:00.364Z,33.72
2019-05-11T09:41:00.341Z,33.29
2019-05-11T09:42:00.322Z,34.62
2019-05-11T09:43:00.360Z,33.73
2019-05-11T09:44:00.334Z,34.91
2019-05-11T09:45:00.294Z,35.05
2019-05-11T09:46:00.338Z,36.10
2019-05-11T09:47:02.621Z,35.72
2019-05-11T09:48:00.313Z,33.69
2019-05-11T09:49:00.339Z,32.54
2019-05-11T09:50:00.336Z,30.98
2019-05-11T09:51:00.313Z,32.55
2019-05-11T09:52:00.326Z,31.85
2019-05-11T09:53:00.301Z,33.69
2019-05-11T09:54:00.293Z,33.58
2019-05-11T09:55:00.323Z,32.98
2019-05-11T09:56:00.339Z,34.77
2019-05-11T09:57:00.332Z,33.87
2019-05-11T09:58:00.355Z,34.92
2019-05-11T09:59:00.340Z,36.45
2019-05-11T10:00:00.335Z,35.16
2019-05-11T10:01:00.336Z,35.35
2019-05-11T10:02:00.315Z,33.78
2019-05-11T10:03:00.396Z,32.35
2019-05-11T10:04:00.354Z,31.10
2019-05-11T10:05:00.376Z,31.12
2019-05-11T10:06:00.373Z,32.60
2019-05-11T10:07:00.390Z,30.60
2019-05-11T10:08:00.432Z,30.25
2019-05-11T10:09:00.404Z,32.62
2019-05-11T10:10:00.454Z,32.99
2019-05-11T10:11:00.444Z,32.95
2019-05-11T10:12:00.448Z,31.42
2019-05-11T10:13:00.487Z,31.98
2019-05-11T10:14:00.530Z,33.62
2019-05-11T10:15:00.456Z,34.19
2019-05-11T10:16:06.864Z,34.24
2019-05-11T10:17:00.486Z,34.18
2019-05-11T10:18:00.506Z,32.83
2019-05-11T10:19:00.523Z,31.92
2019-05-11T10:20:00.543Z,34.15
2019-05-11T10:21:00.495Z,32.34
2019-05-11T10:22:00.528Z,32.85
2019-05-11T10:23:00.486Z,32.60
2019-05-11T10:24:00.510Z,32.35
2019-05-11T10:25:00.550Z,32.75
2019-05-11T10:26:00.533Z,33.87
2019-05-11T10:27:00.514Z,34.54
2019-05-11T10:28:00.530Z,35.11
2019-05-11T10:29:00.508Z,34.25
2019-05-11T10:30:00.494Z,28.88
2019-05-11T10:31:00.557Z,31.25
2019-05-11T10:32:00.517Z,30.94
2019-05-11T10:33:00.524Z,30.36
2019-05-11T10:34:00.553Z,31.35
2019-05-11T10:35:00.521Z,31.63
2019-05-11T10:36:03.152Z,32.66
2019-05-11T10:37:00.536Z,34.01
2019-05-11T10:38:00.534Z,34.15
2019-05-11T10:39:00.550Z,33.64
2019-05-11T10:40:00.573Z,32.17
2019-05-11T10:41:00.579Z,33.99
2019-05-11T10:42:00.636Z,32.78
2019-05-11T10:43:00.574Z,32.80
2019-05-11T10:44:00.621Z,33.66
2019-05-11T10:45:00.614Z,34.63
2019-05-11T10:46:14.856Z,33.15
2019-05-11T10:47:00.627Z,32.83
2019-05-11T10:48:01.267Z,33.75
2019-05-11T10:49:00.643Z,33.34
2019-05-11T10:50:00.648Z,34.58
2019-05-11T10:51:00.591Z,32.64
2019-05-11T10:52:00.675Z,33.29
2019-05-11T10:53:00.666Z,33.57
2019-05-11T10:54:00.640Z,31.58
2019-05-11T10:55:00.643Z,31.21
2019-05-11T10:56:00.648Z,31.08
2019-05-11T10:57:00.645Z,32.10
2019-05-11T10:58:00.691Z,30.95
2019-05-11T10:59:00.671Z,32.39
2019-05-11T11:00:00.638Z,33.70
2019-05-11T11:01:00.671Z,33.89
2019-05-11T11:02:00.664Z,33.54
2019-05-11T11:03:00.642Z,33.30
2019-05-11T11:04:00.693Z,34.19
2019-05-11T11:05:00.880Z,33.16
2019-05-11T11:06:00.647Z,35.61
2019-05-11T11:07:00.682Z,36.80
2019-05-11T11:08:00.647Z,37.20
2019-05-11T11:09:00.607Z,36.42
2019-05-11T11:10:00.691Z,37.04
2019-05-11T11:11:00.655Z,35.92
2019-05-11T11:12:00.650Z,34.93
2019-05-11T11:13:00.675Z,35.58
2019-05-11T11:14:00.627Z,34.72
2019-05-11T11:15:00.667Z,35.30
2019-05-11T11:16:02.104Z,34.63
2019-05-11T11:17:00.667Z,33.76
2019-05-11T11:18:00.612Z,34.34
2019-05-11T11:19:00.691Z,36.22
2019-05-11T11:20:00.698Z,35.19
2019-05-11T11:21:00.672Z,36.23
2019-05-11T11:22:28.561Z,35.63
2019-05-11T11:23:00.672Z,36.37
2019-05-11T11:24:00.622Z,37.57
2019-05-11T11:25:00.713Z,38.66
2019-05-11T11:26:00.673Z,39.84
2019-05-11T11:27:00.713Z,39.38
2019-05-11T11:28:00.697Z,37.37
2019-05-11T11:29:00.681Z,37.44
2019-05-11T11:30:00.686Z,36.38
2019-05-11T11:31:00.699Z,36.00
2019-05-11T11:32:00.682Z,35.66
2019-05-11T11:33:00.701Z,35.37
2019-05-11T11:34:00.707Z,37.13
2019-05-11T11:35:00.799Z,36.88
2019-05-11T11:36:00.648Z,36.18
2019-05-11T11:37:00.708Z,37.72
2019-05-11T11:38:00.702Z,37.15
2019-05-11T11:39:00.643Z,37.02
2019-05-11T11:40:00.741Z,38.24
2019-05-11T11:41:00.690Z,37.25
2019-05-11T11:42:00.678Z,37.53
2019-05-11T11:43:00.713Z,35.36
2019-05-11T11:44:00.681Z,35.55
2019-05-11T11:45:00.717Z,36.59
2019-05-11T11:46:00.737Z,37.52
2019-05-11T11:47:00.780Z,36.41
2019-05-11T11:48:00.685Z,36.96
2019-05-11T11:49:00.720Z,36.30
2019-05-11T11:50:00.744Z,35.78
2019-05-11T11:51:00.704Z,36.92
2019-05-11T11:52:00.732Z,36.30
2019-05-11T11:53:00.716Z,36.26
2019-05-11T11:54:00.698Z,35.38
2019-05-11T11:55:00.723Z,35.68
2019-05-11T11:56:00.725Z,35.83
2019-05-11T11:57:00.713Z,35.78
2019-05-11T11:58:00.742Z,35.66
2019-05-11T11:59:00.731Z,34.92
2019-05-11T12:00:00.720Z,33.91
2019-05-11T12:01:00.739Z,33.93
2019-05-11T12:02:00.726Z,33.83
2019-05-11T12:03:00.667Z,33.22
2019-05-11T12:04:00.760Z,33.64
2019-05-11T12:05:00.709Z,33.52
2019-05-11T12:06:00.679Z,35.17
2019-05-11T12:07:00.739Z,34.55
2019-05-11T12:08:00.739Z,34.03
2019-05-11T12:09:00.703Z,34.39
2019-05-11T12:10:00.744Z,35.37
2019-05-11T12:11:00.722Z,35.59
2019-05-11T12:12:00.697Z,35.73
2019-05-11T12:13:00.746Z,35.96
2019-05-11T12:14:00.756Z,36.86
2019-05-11T12:15:00.751Z,37.58
2019-05-11T12:16:00.758Z,37.97
2019-05-11T12:17:06.967Z,36.33
2019-05-11T12:18:00.695Z,36.15
2019-05-11T12:19:00.749Z,36.95
2019-05-11T12:20:00.737Z,37.47
2019-05-11T12:21:00.716Z,37.43
2019-05-11T12:22:00.780Z,36.26
2019-05-11T12:23:00.767Z,36.47
2019-05-11T12:24:00.732Z,36.27
2019-05-11T12:25:00.769Z,36.98
2019-05-11T12:26:00.728Z,34.26
2019-05-11T12:27:00.753Z,34.11
2019-05-11T12:28:00.766Z,35.51
2019-05-11T12:29:00.756Z,33.72
2019-05-11T12:30:00.705Z,31.53
2019-05-11T12:31:00.762Z,32.63
2019-05-11T12:32:00.738Z,32.73
2019-05-11T12:33:00.725Z,33.64
2019-05-11T12:34:00.767Z,33.18
2019-05-11T12:35:00.734Z,32.39
2019-05-11T12:36:00.728Z,29.73
2019-05-11T12:37:00.768Z,31.55
2019-05-11T12:38:00.778Z,32.88
2019-05-11T12:39:00.752Z,35.52
2019-05-11T12:40:00.767Z,35.08
2019-05-11T12:41:00.732Z,34.97
2019-05-11T12:42:00.713Z,35.60
2019-05-11T12:43:00.806Z,34.17
2019-05-11T12:44:00.769Z,33.55
2019-05-11T12:45:00.756Z,33.88
2019-05-11T12:46:00.779Z,34.62
2019-05-11T12:47:00.755Z,36.70
2019-05-11T12:48:00.773Z,37.84
2019-05-11T12:49:00.798Z,37.35
2019-05-11T12:50:00.757Z,37.26
2019-05-11T12:51:00.741Z,34.74
2019-05-11T12:52:00.761Z,34.09
2019-05-11T12:53:00.746Z,34.92